createdAt,value
2018-06-04T00:00:39.338Z,15.70
2018-06-04T00:03:06.959Z,15.70
2018-06-04T00:05:34.563Z,15.80
2018-06-04T00:08:02.169Z,15.90
2018-06-04T00:10:29.765Z,15.80
2018-06-04T00:12:57.963Z,15.80
2018-06-04T00:15:25.545Z,15.80
2018-06-04T00:17:54.161Z,15.80
2018-06-04T00:20:21.768Z,15.80
2018-06-04T00:22:49.400Z,15.80
2018-06-04T00:25:17.001Z,15.80
2018-06-04T00:27:45.192Z,15.70
2018-06-04T00:30:12.783Z,15.70
2018-06-04T00:32:40.368Z,15.90
2018-06-04T00:35:07.955Z,16.00
2018-06-04T00:37:35.552Z,16.10
2018-06-04T00:40:03.619Z,16.20
2018-06-04T00:44:58.833Z,16.10
2018-06-04T00:47:26.397Z,15.90
2018-06-04T00:49:54.002Z,16.00
2018-06-04T00:52:21.585Z,16.10
2018-06-04T00:54:49.173Z,16.10
2018-06-04T00:57:16.782Z,16.20
2018-06-04T00:59:45.108Z,16.20
2018-06-04T01:02:12.716Z,16.30
2018-06-04T01:04:40.281Z,16.30
2018-06-04T01:07:08.474Z,16.30
2018-06-04T01:09:36.104Z,16.40
2018-06-04T01:12:03.754Z,16.40
2018-06-04T01:14:31.356Z,16.40
2018-06-04T01:16:58.925Z,16.40
2018-06-04T01:19:26.528Z,16.30
2018-06-04T01:21:54.116Z,16.20
2018-06-04T01:24:21.714Z,16.00
2018-06-04T01:26:49.321Z,15.80
2018-06-04T01:29:17.519Z,15.70
2018-06-04T01:31:45.133Z,15.60
2018-06-04T01:34:12.748Z,15.70
2018-06-04T01:36:40.297Z,15.40
2018-06-04T01:39:07.877Z,15.70
2018-06-04T01:41:35.601Z,15.70
2018-06-04T01:44:03.436Z,15.80
2018-06-04T01:46:31.035Z,15.80
2018-06-04T01:48:58.594Z,15.70
2018-06-04T01:51:26.274Z,15.70
2018-06-04T01:53:53.869Z,15.70
2018-06-04T01:56:21.469Z,15.60
2018-06-04T01:58:49.045Z,15.60
2018-06-04T02:01:16.637Z,15.60
2018-06-04T02:03:44.193Z,15.60
2018-06-04T02:06:11.829Z,15.60
2018-06-04T02:08:40.878Z,15.60
2018-06-04T02:11:08.457Z,15.60
2018-06-04T02:13:36.336Z,15.60
2018-06-04T02:18:31.431Z,15.50
2018-06-04T02:20:58.984Z,15.50
2018-06-04T02:23:26.570Z,15.50
2018-06-04T02:25:54.189Z,15.50
2018-06-04T02:28:21.749Z,15.50
2018-06-04T02:30:49.353Z,15.50
2018-06-04T02:33:16.949Z,15.30
2018-06-04T02:35:44.545Z,15.20
2018-06-04T02:38:12.150Z,15.30
2018-06-04T02:40:39.743Z,15.30
2018-06-04T02:43:07.407Z,15.30
2018-06-04T02:45:35.602Z,15.30
2018-06-04T02:48:03.249Z,15.20
2018-06-04T02:50:30.838Z,15.10
2018-06-04T02:52:58.452Z,14.90
2018-06-04T02:55:26.033Z,14.80
2018-06-04T02:57:53.617Z,14.80
2018-06-04T03:00:21.204Z,14.80
2018-06-04T03:02:48.820Z,14.90
2018-06-04T03:05:16.422Z,14.90
2018-06-04T03:07:44.022Z,14.90
2018-06-04T03:10:11.625Z,15.00
2018-06-04T03:12:39.239Z,15.00
2018-06-04T03:15:06.833Z,14.90
2018-06-04T03:17:34.453Z,15.00
2018-06-04T03:20:02.063Z,14.90
2018-06-04T03:22:29.666Z,14.90
2018-06-04T03:24:57.252Z,14.90
2018-06-04T03:27:24.866Z,14.80
2018-06-04T03:29:59.348Z,14.80
2018-06-04T03:32:26.945Z,14.80
2018-06-04T03:34:54.544Z,14.80
2018-06-04T03:37:22.164Z,14.80
2018-06-04T03:39:49.755Z,14.80
2018-06-04T03:42:17.336Z,14.90
2018-06-04T03:44:45.664Z,14.90
2018-06-04T03:47:13.333Z,14.90
2018-06-04T03:49:40.948Z,15.00
2018-06-04T03:52:08.574Z,15.00
2018-06-04T03:54:36.160Z,15.00
2018-06-04T03:57:03.753Z,15.00
2018-06-04T03:59:31.358Z,15.00
2018-06-04T04:01:59.654Z,15.00
2018-06-04T04:04:27.229Z,14.90
2018-06-04T04:06:55.824Z,14.90
2018-06-04T04:09:23.439Z,15.00
2018-06-04T04:11:51.030Z,15.10
2018-06-04T04:14:18.597Z,15.10
2018-06-04T04:16:46.205Z,15.30
2018-06-04T04:19:13.819Z,15.30
2018-06-04T04:21:42.285Z,15.30
2018-06-04T04:24:09.966Z,15.30
2018-06-04T04:26:37.582Z,15.30
2018-06-04T04:29:05.880Z,15.50
2018-06-04T04:31:33.552Z,15.50
2018-06-04T04:34:01.836Z,15.60
2018-06-04T04:36:29.472Z,15.80
2018-06-04T04:38:57.061Z,15.90
2018-06-04T04:41:25.213Z,16.10
2018-06-04T04:43:52.812Z,16.20
2018-06-04T04:46:20.395Z,16.20
2018-06-04T04:48:47.966Z,16.40
2018-06-04T04:51:15.546Z,16.40
2018-06-04T04:53:43.124Z,16.50
2018-06-04T04:56:10.722Z,16.60
2018-06-04T05:01:05.797Z,16.80
2018-06-04T05:03:33.380Z,16.90
2018-06-04T05:06:00.964Z,17.10
2018-06-04T05:08:28.597Z,17.20
2018-06-04T05:10:56.185Z,17.30
2018-06-04T05:13:23.793Z,17.40
2018-06-04T05:15:51.869Z,17.50
2018-06-04T05:18:19.441Z,17.60
2018-06-04T05:20:47.081Z,17.80
2018-06-04T05:23:14.641Z,17.80
2018-06-04T05:25:42.249Z,17.90
2018-06-04T05:30:37.329Z,18.30
2018-06-04T05:33:04.920Z,18.40
2018-06-04T05:35:32.519Z,18.50
2018-06-04T05:38:00.089Z,18.70
2018-06-04T05:40:27.692Z,18.80
2018-06-04T05:42:55.232Z,19.00
2018-06-04T05:45:24.825Z,19.10
2018-06-04T05:47:52.438Z,19.30
2018-06-04T05:50:20.029Z,19.40
2018-06-04T05:52:47.629Z,19.60
2018-06-04T05:55:15.213Z,19.70
2018-06-04T05:57:42.780Z,19.90
2018-06-04T06:00:10.408Z,19.90
2018-06-04T06:02:37.973Z,20.00
2018-06-04T06:05:05.579Z,20.10
2018-06-04T06:07:33.121Z,20.20
2018-06-04T06:10:00.709Z,20.40
2018-06-04T06:12:28.916Z,20.50
2018-06-04T06:14:56.505Z,20.90
2018-06-04T06:17:24.131Z,21.10
2018-06-04T06:19:51.735Z,21.20
2018-06-04T06:22:19.285Z,21.20
2018-06-04T06:24:46.853Z,21.30
2018-06-04T06:27:14.397Z,21.50
2018-06-04T06:29:42.807Z,21.60
2018-06-04T06:32:10.373Z,21.60
2018-06-04T06:34:37.945Z,21.70
2018-06-04T06:37:05.540Z,21.00
2018-06-04T06:39:33.133Z,21.60
2018-06-04T06:42:00.686Z,21.70
2018-06-04T06:44:28.265Z,21.90
2018-06-04T06:46:55.825Z,21.70
2018-06-04T06:49:23.393Z,21.90
2018-06-04T06:51:50.965Z,22.10
2018-06-04T06:54:18.529Z,22.20
2018-06-04T06:56:46.106Z,22.30
2018-06-04T06:59:13.729Z,22.60
2018-06-04T07:01:41.277Z,22.80
2018-06-04T07:04:08.855Z,22.90
2018-06-04T07:06:36.493Z,22.90
2018-06-04T07:09:07.149Z,22.80
2018-06-04T07:11:34.741Z,22.60
2018-06-04T07:14:02.947Z,22.90
2018-06-04T07:16:30.521Z,22.90
2018-06-04T07:18:58.109Z,23.20
2018-06-04T07:21:25.746Z,23.30
2018-06-04T07:23:53.296Z,23.30
2018-06-04T07:26:20.862Z,23.30
2018-06-04T07:28:48.441Z,23.60
2018-06-04T07:31:15.985Z,23.90
2018-06-04T07:33:44.148Z,24.20
2018-06-04T07:36:11.873Z,24.40
2018-06-04T07:38:40.602Z,24.20
2018-06-04T07:41:08.275Z,24.30
2018-06-04T07:43:35.898Z,24.10
2018-06-04T07:46:03.500Z,24.30
2018-06-04T07:48:31.148Z,24.30
2018-06-04T07:50:58.693Z,24.50
2018-06-04T07:53:26.249Z,24.60
2018-06-04T07:55:53.805Z,24.80
2018-06-04T07:58:22.154Z,24.90
2018-06-04T08:00:50.369Z,25.00
2018-06-04T08:03:17.917Z,24.80
2018-06-04T08:05:45.465Z,24.80
2018-06-04T08:08:13.067Z,25.00
2018-06-04T08:10:40.633Z,25.10
2018-06-04T08:15:35.740Z,25.30
2018-06-04T08:20:30.793Z,25.40
2018-06-04T08:22:58.373Z,25.70
2018-06-04T08:25:25.962Z,25.70
2018-06-04T08:27:53.569Z,25.50
2018-06-04T08:30:21.112Z,25.50
2018-06-04T08:32:48.721Z,25.50
2018-06-04T08:35:16.297Z,25.70
2018-06-04T08:37:43.853Z,25.90
2018-06-04T08:40:11.453Z,26.00
2018-06-04T08:42:38.997Z,26.20
2018-06-04T08:45:07.117Z,26.30
2018-06-04T08:47:34.697Z,26.60
2018-06-04T08:50:02.302Z,26.60
2018-06-04T08:52:29.953Z,26.60
2018-06-04T08:54:57.497Z,26.70
2018-06-04T08:57:25.176Z,26.90
2018-06-04T08:59:52.740Z,27.10
2018-06-04T09:04:50.885Z,27.10
2018-06-04T09:07:27.584Z,27.00
2018-06-04T09:09:55.159Z,27.10
2018-06-04T09:12:24.785Z,27.20
2018-06-04T09:14:52.329Z,27.30
2018-06-04T09:17:19.912Z,27.20
2018-06-04T09:19:47.473Z,27.40
2018-06-04T09:22:15.105Z,27.60
2018-06-04T09:24:42.684Z,27.50
2018-06-04T09:27:10.277Z,27.50
2018-06-04T09:29:37.836Z,27.50
2018-06-04T09:32:05.456Z,27.60
2018-06-04T09:34:33.000Z,27.70
2018-06-04T09:37:00.584Z,27.50
2018-06-04T09:39:28.157Z,27.30
2018-06-04T09:41:55.738Z,27.30
2018-06-04T09:44:23.313Z,27.30
2018-06-04T09:46:51.193Z,27.50
2018-06-04T09:49:18.797Z,27.90
2018-06-04T09:51:46.393Z,28.20
2018-06-04T09:54:14.376Z,28.20
2018-06-04T09:56:41.949Z,28.40
2018-06-04T09:59:10.241Z,28.20
2018-06-04T10:01:37.819Z,28.40
2018-06-04T10:04:05.404Z,28.50
2018-06-04T10:06:32.985Z,28.80
2018-06-04T10:09:00.541Z,28.80
2018-06-04T10:11:29.135Z,28.90
2018-06-04T10:13:56.688Z,28.70
2018-06-04T10:16:25.288Z,28.70
2018-06-04T10:18:52.911Z,28.90
2018-06-04T10:21:20.476Z,29.00
2018-06-04T10:23:48.069Z,29.10
2018-06-04T10:26:15.614Z,29.30
2018-06-04T10:28:43.165Z,29.40
2018-06-04T10:31:10.712Z,29.40
2018-06-04T10:33:38.763Z,29.50
2018-06-04T10:36:06.271Z,29.60
2018-06-04T10:38:33.866Z,29.50
2018-06-04T10:41:01.438Z,29.80
2018-06-04T10:45:56.461Z,29.90
2018-06-04T10:48:24.037Z,29.90
2018-06-04T10:53:19.085Z,29.80
2018-06-04T10:55:46.642Z,29.80
2018-06-04T10:58:14.216Z,30.00
2018-06-04T11:00:41.772Z,30.20
2018-06-04T11:03:09.335Z,30.20
2018-06-04T11:05:36.957Z,30.20
2018-06-04T11:08:05.136Z,30.30
2018-06-04T11:10:32.702Z,30.40
2018-06-04T11:13:00.254Z,30.60
2018-06-04T11:15:27.839Z,30.60
2018-06-04T11:17:55.395Z,30.70
2018-06-04T11:20:23.151Z,30.60
2018-06-04T11:22:50.709Z,30.70
2018-06-04T11:25:18.289Z,30.90
2018-06-04T11:27:45.861Z,31.00
2018-06-04T11:30:13.433Z,31.00
2018-06-04T11:32:41.000Z,31.00
2018-06-04T11:35:08.564Z,30.90
2018-06-04T11:37:36.191Z,30.90
2018-06-04T11:40:03.932Z,30.90
2018-06-04T11:42:31.485Z,31.00
2018-06-04T11:44:59.036Z,31.20
2018-06-04T11:47:26.596Z,31.10
2018-06-04T11:49:54.176Z,30.90
2018-06-04T11:52:21.724Z,31.10
2018-06-04T11:54:49.305Z,30.80
2018-06-04T11:57:16.857Z,30.80
2018-06-04T11:59:44.396Z,31.00
2018-06-04T12:02:12.016Z,31.20
2018-06-04T12:04:39.567Z,31.50
2018-06-04T12:07:07.149Z,31.50
2018-06-04T12:09:34.713Z,31.40
2018-06-04T12:12:02.311Z,31.10
2018-06-04T12:14:29.896Z,30.60
2018-06-04T12:16:57.456Z,30.50
2018-06-04T12:19:25.056Z,30.60
2018-06-04T12:21:52.640Z,30.70
2018-06-04T12:24:20.211Z,30.90
2018-06-04T12:26:47.785Z,30.90
2018-06-04T12:29:15.360Z,31.10
2018-06-04T12:31:43.937Z,31.40
2018-06-04T12:34:11.500Z,32.20
2018-06-04T12:36:39.072Z,32.50
2018-06-04T12:39:08.280Z,33.10
2018-06-04T12:41:35.844Z,33.80
2018-06-04T12:44:03.481Z,34.80
2018-06-04T12:46:31.048Z,35.60
2018-06-04T12:48:58.661Z,36.40
2018-06-04T12:51:26.205Z,37.00
2018-06-04T12:53:54.500Z,37.60
2018-06-04T12:56:22.048Z,37.50
2018-06-04T12:58:49.660Z,37.40
2018-06-04T13:01:17.896Z,37.80
2018-06-04T13:03:45.465Z,38.20
2018-06-04T13:06:13.040Z,37.10
2018-06-04T13:08:40.612Z,35.90
2018-06-04T13:11:08.144Z,35.60
2018-06-04T13:13:35.725Z,36.30
2018-06-04T13:16:03.361Z,37.00
2018-06-04T13:18:30.939Z,37.50
2018-06-04T13:20:58.532Z,37.80
2018-06-04T13:23:26.733Z,37.90
2018-06-04T13:25:54.304Z,37.70
2018-06-04T13:28:21.900Z,37.60
2018-06-04T13:30:50.119Z,38.20
2018-06-04T13:33:17.704Z,38.30
2018-06-04T13:35:45.281Z,38.70
2018-06-04T13:38:12.839Z,38.70
2018-06-04T13:40:40.425Z,38.30
2018-06-04T13:43:08.775Z,38.30
2018-06-04T13:45:36.416Z,38.40
2018-06-04T13:48:03.965Z,38.40
2018-06-04T13:50:31.572Z,38.30
2018-06-04T13:52:59.170Z,38.90
2018-06-04T13:55:26.736Z,39.40
2018-06-04T13:57:57.268Z,39.40
2018-06-04T14:00:24.835Z,39.40
2018-06-04T14:02:52.404Z,39.20
2018-06-04T14:05:19.978Z,39.20
2018-06-04T14:07:47.535Z,39.00
2018-06-04T14:10:15.127Z,39.00
2018-06-04T14:12:42.728Z,39.40
2018-06-04T14:15:10.290Z,39.10
2018-06-04T14:17:37.856Z,38.80
2018-06-04T14:20:10.531Z,39.20
2018-06-04T14:22:40.167Z,39.70
2018-06-04T14:25:07.760Z,39.90
2018-06-04T14:27:37.513Z,40.10
2018-06-04T14:30:15.025Z,40.10
2018-06-04T14:32:43.625Z,40.60
2018-06-04T14:35:11.194Z,41.10
2018-06-04T14:37:40.210Z,41.20
2018-06-04T14:40:07.864Z,40.70
2018-06-04T14:42:35.412Z,40.60
2018-06-04T14:45:03.195Z,40.40
2018-06-04T14:47:30.764Z,40.30
2018-06-04T14:49:58.522Z,40.20
2018-06-04T14:52:26.120Z,40.20
2018-06-04T14:54:53.703Z,40.30
2018-06-04T14:57:21.255Z,40.40
2018-06-04T14:59:48.820Z,40.50
2018-06-04T15:02:16.381Z,40.70
2018-06-04T15:04:44.017Z,41.50
2018-06-04T15:07:11.593Z,42.50
2018-06-04T15:09:39.180Z,42.80
2018-06-04T15:12:06.744Z,42.80
2018-06-04T15:14:34.332Z,42.20
2018-06-04T15:17:01.970Z,42.40
2018-06-04T15:19:29.552Z,42.20
2018-06-04T15:21:57.100Z,41.70
2018-06-04T15:24:25.390Z,41.30
2018-06-04T15:26:53.693Z,41.00
2018-06-04T15:29:21.268Z,41.40
2018-06-04T15:31:48.840Z,41.70
2018-06-04T15:34:16.447Z,41.50
2018-06-04T15:36:44.028Z,41.50
2018-06-04T15:39:13.133Z,41.90
2018-06-04T15:41:41.598Z,41.90
2018-06-04T15:44:09.809Z,41.90
2018-06-04T15:46:37.401Z,41.80
2018-06-04T15:49:05.845Z,41.50
2018-06-04T15:51:33.452Z,41.50
2018-06-04T15:54:01.020Z,41.80
2018-06-04T15:56:28.584Z,41.30
2018-06-04T15:58:56.176Z,41.60
2018-06-04T16:01:23.832Z,41.90
2018-06-04T16:03:51.684Z,41.80
2018-06-04T16:06:19.837Z,41.50
2018-06-04T16:08:47.420Z,41.80
2018-06-04T16:11:14.983Z,41.60
2018-06-04T16:13:42.568Z,41.50
2018-06-04T16:16:10.117Z,41.20
2018-06-04T16:18:38.516Z,40.90
2018-06-04T16:21:06.108Z,40.80
2018-06-04T16:23:33.698Z,40.20
2018-06-04T16:26:01.261Z,40.40
2018-06-04T16:28:28.856Z,40.50
2018-06-04T16:30:56.432Z,40.80
2018-06-04T16:33:24.044Z,41.30
2018-06-04T16:35:51.635Z,41.10
2018-06-04T16:38:20.860Z,40.70
2018-06-04T16:40:48.465Z,40.80
2018-06-04T16:43:16.069Z,40.30
2018-06-04T16:45:43.645Z,40.30
2018-06-04T16:48:11.256Z,39.70
2018-06-04T16:50:38.850Z,39.80
2018-06-04T16:53:06.456Z,40.20
2018-06-04T16:55:34.055Z,40.40
2018-06-04T16:58:01.633Z,40.10
2018-06-04T17:05:24.176Z,39.60
2018-06-04T17:07:51.744Z,39.00
2018-06-04T17:10:19.353Z,37.80
2018-06-04T17:12:46.940Z,36.50
2018-06-04T17:17:42.006Z,33.70
2018-06-04T17:20:09.596Z,32.60
2018-06-04T17:22:37.184Z,31.80
2018-06-04T17:25:04.820Z,31.20
2018-06-04T17:27:32.472Z,30.70
2018-06-04T17:30:00.132Z,30.20
2018-06-04T17:32:28.377Z,29.80
2018-06-04T17:34:56.085Z,29.40
2018-06-04T17:37:23.757Z,29.10
2018-06-04T17:39:52.170Z,28.70
2018-06-04T17:42:19.811Z,28.60
2018-06-04T17:44:47.364Z,28.40
2018-06-04T17:47:14.988Z,28.20
2018-06-04T17:49:42.618Z,28.10
2018-06-04T17:52:11.332Z,28.00
2018-06-04T17:54:38.917Z,27.90
2018-06-04T17:57:06.547Z,27.60
2018-06-04T17:59:34.171Z,27.30
2018-06-04T18:02:01.752Z,27.10
2018-06-04T18:04:29.372Z,27.00
2018-06-04T18:06:56.934Z,26.90
2018-06-04T18:09:24.532Z,26.70
2018-06-04T18:11:52.108Z,26.50
2018-06-04T18:14:19.685Z,26.20
2018-06-04T18:16:47.912Z,26.00
2018-06-04T18:19:15.484Z,26.20
2018-06-04T18:21:43.133Z,25.90
2018-06-04T18:24:10.773Z,25.80
2018-06-04T18:26:38.333Z,25.80
2018-06-04T18:29:06.029Z,25.70
2018-06-04T18:31:33.639Z,25.70
2018-06-04T18:34:01.238Z,26.40
2018-06-04T18:36:28.796Z,25.40
2018-06-04T18:38:56.398Z,25.30
2018-06-04T18:41:24.456Z,25.30
2018-06-04T18:43:52.017Z,25.20
2018-06-04T18:46:19.648Z,25.10
2018-06-04T18:48:47.209Z,24.80
2018-06-04T18:51:14.772Z,24.80
2018-06-04T18:53:42.365Z,24.60
2018-06-04T18:56:09.978Z,24.30
2018-06-04T18:58:37.548Z,24.10
2018-06-04T19:01:05.246Z,24.00
2018-06-04T19:03:32.802Z,24.00
2018-06-04T19:06:00.399Z,23.90
2018-06-04T19:08:27.993Z,23.90
2018-06-04T19:10:55.597Z,23.80
2018-06-04T19:13:24.180Z,23.70
2018-06-04T19:15:52.760Z,23.50
2018-06-04T19:18:20.317Z,23.50
2018-06-04T19:20:47.920Z,23.40
2018-06-04T19:23:15.485Z,23.40
2018-06-04T19:25:43.081Z,23.30
2018-06-04T19:28:10.660Z,23.40
2018-06-04T19:30:38.287Z,23.10
2018-06-04T19:33:06.115Z,23.10
2018-06-04T19:38:03.320Z,23.00
2018-06-04T19:40:30.926Z,22.90
2018-06-04T19:42:58.514Z,22.80
2018-06-04T19:45:26.144Z,22.80
2018-06-04T19:50:21.260Z,22.50
2018-06-04T19:52:48.824Z,22.40
2018-06-04T19:55:18.391Z,22.20
2018-06-04T19:57:46.905Z,22.10
2018-06-04T20:00:14.472Z,22.10
2018-06-04T20:02:42.053Z,22.00
2018-06-04T20:05:09.651Z,22.00
2018-06-04T20:07:37.792Z,22.00
2018-06-04T20:10:05.387Z,21.90
2018-06-04T20:12:32.958Z,21.80
2018-06-04T20:15:00.583Z,21.90
2018-06-04T20:17:28.202Z,21.60
2018-06-04T20:19:55.758Z,21.50
2018-06-04T20:22:23.365Z,21.50
2018-06-04T20:24:50.972Z,21.40
2018-06-04T20:27:18.725Z,21.30
2018-06-04T20:29:46.524Z,21.20
2018-06-04T20:32:15.243Z,21.20
2018-06-04T20:34:42.852Z,21.00
2018-06-04T20:37:10.445Z,20.90
2018-06-04T20:39:38.120Z,20.90
2018-06-04T20:42:05.732Z,20.70
2018-06-04T20:44:33.317Z,20.70
2018-06-04T20:47:00.930Z,20.60
2018-06-04T20:49:28.481Z,20.40
2018-06-04T20:51:56.076Z,20.10
2018-06-04T20:54:23.689Z,20.00
2018-06-04T20:56:51.280Z,20.00
2018-06-04T20:59:18.842Z,20.00
2018-06-04T21:01:46.471Z,19.90
2018-06-04T21:04:14.067Z,19.80
2018-06-04T21:06:41.644Z,19.60
2018-06-04T21:09:09.216Z,19.50
2018-06-04T21:11:36.837Z,19.60
2018-06-04T21:14:04.454Z,19.60
2018-06-04T21:16:32.037Z,19.50
2018-06-04T21:18:59.624Z,19.70
2018-06-04T21:21:27.208Z,19.70
2018-06-04T21:23:54.798Z,19.70
2018-06-04T21:26:22.437Z,19.80
2018-06-04T21:28:50.025Z,19.80
2018-06-04T21:31:17.624Z,19.90
2018-06-04T21:33:46.180Z,19.80
2018-06-04T21:36:13.848Z,19.80
2018-06-04T21:38:41.404Z,19.50
2018-06-04T21:41:08.981Z,19.30
2018-06-04T21:43:36.563Z,19.20
2018-06-04T21:46:04.235Z,19.20
2018-06-04T21:48:31.860Z,19.20
2018-06-04T21:50:59.424Z,19.30
2018-06-04T21:53:27.025Z,19.40
2018-06-04T21:55:54.645Z,19.40
2018-06-04T21:58:22.262Z,19.40
2018-06-04T22:00:49.926Z,19.40
2018-06-04T22:03:17.504Z,19.30
2018-06-04T22:05:45.092Z,19.20
2018-06-04T22:08:12.696Z,19.10
2018-06-04T22:10:40.264Z,19.10
2018-06-04T22:13:08.600Z,19.00
2018-06-04T22:15:36.215Z,18.90
2018-06-04T22:18:03.781Z,18.90
2018-06-04T22:20:31.372Z,18.90
2018-06-04T22:22:58.965Z,18.90
2018-06-04T22:25:26.562Z,19.00
2018-06-04T22:27:54.116Z,19.10
2018-06-04T22:30:21.716Z,19.20
2018-06-04T22:32:49.297Z,19.10
2018-06-04T22:35:16.872Z,19.20
2018-06-04T22:37:44.468Z,19.10
2018-06-04T22:40:12.990Z,19.10
2018-06-04T22:42:40.541Z,19.20
2018-06-04T22:45:08.117Z,19.20
2018-06-04T22:47:36.225Z,19.10
2018-06-04T22:50:03.864Z,19.00
2018-06-04T22:52:31.496Z,18.90
2018-06-04T22:54:59.118Z,18.80
2018-06-04T22:57:26.698Z,18.70
2018-06-04T22:59:55.324Z,18.50
2018-06-04T23:02:22.917Z,18.50
2018-06-04T23:04:50.491Z,18.50
2018-06-04T23:07:18.073Z,18.40
2018-06-04T23:09:46.437Z,18.40
2018-06-04T23:12:14.014Z,18.30
2018-06-04T23:14:41.589Z,18.30
2018-06-04T23:17:09.156Z,18.30
2018-06-04T23:19:37.347Z,18.30
2018-06-04T23:22:04.949Z,18.30
2018-06-04T23:24:32.525Z,18.30
2018-06-04T23:27:00.097Z,18.20
2018-06-04T23:29:28.336Z,18.10
2018-06-04T23:31:55.921Z,18.10
2018-06-04T23:34:23.520Z,18.00
2018-06-04T23:36:51.092Z,17.90
2018-06-04T23:39:19.199Z,17.80
2018-06-04T23:41:46.800Z,17.70
2018-06-04T23:44:14.360Z,17.80
2018-06-04T23:46:41.978Z,17.70
2018-06-04T23:49:09.560Z,17.60
2018-06-04T23:51:38.172Z,17.60
2018-06-04T23:54:05.732Z,17.60
2018-06-04T23:56:33.308Z,17.50
2018-06-04T23:59:00.892Z,17.60
